sensor_id;sensor_type;location;lat;lon;timestamp;P1;durP1;ratioP1;P2;durP2;ratioP2
14994;SDS011;7593;49.006;8.372;2022-09-25T00:00:58;17.60;;;15.90;;
14994;SDS011;7593;49.006;8.372;2022-09-25T00:03:25;16.90;;;15.23;;
14994;SDS011;7593;49.006;8.372;2022-09-25T00:05:59;16.80;;;15.10;;
14994;SDS011;7593;49.006;8.372;2022-09-25T00:08:27;15.93;;;14.43;;
14994;SDS011;7593;49.006;8.372;2022-09-25T00:10:54;16.42;;;14.82;;
14994;SDS011;7593;49.006;8.372;2022-09-25T00:13:22;16.17;;;14.45;;
14994;SDS011;7593;49.006;8.372;2022-09-25T00:15:50;15.07;;;13.57;;
14994;SDS011;7593;49.006;8.372;2022-09-25T00:18:19;15.30;;;13.88;;
14994;SDS011;7593;49.006;8.372;2022-09-25T00:21:08;16.25;;;14.55;;
14994;SDS011;7593;49.006;8.372;2022-09-25T00:23:36;14.88;;;13.20;;
14994;SDS011;7593;49.006;8.372;2022-09-25T00:26:04;15.23;;;13.73;;
14994;SDS011;7593;49.006;8.372;2022-09-25T00:28:33;15.90;;;14.30;;
14994;SDS011;7593;49.006;8.372;2022-09-25T00:31:00;15.75;;;14.15;;
14994;SDS011;7593;49.006;8.372;2022-09-25T00:33:28;16.63;;;14.85;;
14994;SDS011;7593;49.006;8.372;2022-09-25T00:35:59;15.85;;;14.35;;
14994;SDS011;7593;49.006;8.372;2022-09-25T00:38:28;16.10;;;14.60;;
14994;SDS011;7593;49.006;8.372;2022-09-25T00:40:56;16.30;;;14.70;;
14994;SDS011;7593;49.006;8.372;2022-09-25T00:43:32;15.27;;;13.57;;
14994;SDS011;7593;49.006;8.372;2022-09-25T00:46:03;15.93;;;14.38;;
14994;SDS011;7593;49.006;8.372;2022-09-25T00:48:34;16.13;;;14.10;;
14994;SDS011;7593;49.006;8.372;2022-09-25T00:51:01;16.42;;;12.82;;
14994;SDS011;7593;49.006;8.372;2022-09-25T00:53:30;16.13;;;13.18;;
14994;SDS011;7593;49.006;8.372;2022-09-25T00:55:59;13.18;;;11.88;;
14994;SDS011;7593;49.006;8.372;2022-09-25T00:58:28;15.88;;;13.23;;
14994;SDS011;7593;49.006;8.372;2022-09-25T01:00:59;15.30;;;13.85;;
14994;SDS011;7593;49.006;8.372;2022-09-25T01:03:26;17.58;;;13.88;;
14994;SDS011;7593;49.006;8.372;2022-09-25T01:05:53;17.05;;;14.18;;
14994;SDS011;7593;49.006;8.372;2022-09-25T01:08:24;15.23;;;13.63;;
14994;SDS011;7593;49.006;8.372;2022-09-25T01:10:53;15.43;;;13.82;;
14994;SDS011;7593;49.006;8.372;2022-09-25T01:13:20;15.82;;;14.07;;
14994;SDS011;7593;49.006;8.372;2022-09-25T01:15:48;18.30;;;14.90;;
14994;SDS011;7593;49.006;8.372;2022-09-25T01:18:27;16.40;;;14.80;;
14994;SDS011;7593;49.006;8.372;2022-09-25T01:21:04;16.27;;;14.60;;
14994;SDS011;7593;49.006;8.372;2022-09-25T01:23:45;18.02;;;15.52;;
14994;SDS011;7593;49.006;8.372;2022-09-25T01:26:55;17.92;;;15.93;;
14994;SDS011;7593;49.006;8.372;2022-09-25T01:29:39;18.15;;;16.10;;
14994;SDS011;7593;49.006;8.372;2022-09-25T01:32:15;19.23;;;17.23;;
14994;SDS011;7593;49.006;8.372;2022-09-25T01:34:47;20.50;;;18.35;;
14994;SDS011;7593;49.006;8.372;2022-09-25T01:37:19;20.90;;;17.85;;
14994;SDS011;7593;49.006;8.372;2022-09-25T01:39:52;19.85;;;17.85;;
14994;SDS011;7593;49.006;8.372;2022-09-25T01:42:26;19.05;;;16.70;;
14994;SDS011;7593;49.006;8.372;2022-09-25T01:45:02;19.35;;;17.35;;
14994;SDS011;7593;49.006;8.372;2022-09-25T01:47:32;19.20;;;17.30;;
14994;SDS011;7593;49.006;8.372;2022-09-25T01:50:02;18.73;;;16.75;;
14994;SDS011;7593;49.006;8.372;2022-09-25T01:52:34;19.50;;;17.15;;
14994;SDS011;7593;49.006;8.372;2022-09-25T01:55:05;20.98;;;17.25;;
14994;SDS011;7593;49.006;8.372;2022-09-25T01:57:35;18.38;;;16.48;;
14994;SDS011;7593;49.006;8.372;2022-09-25T02:00:07;17.02;;;15.32;;
14994;SDS011;7593;49.006;8.372;2022-09-25T02:02:38;17.52;;;15.73;;
14994;SDS011;7593;49.006;8.372;2022-09-25T02:05:11;18.75;;;15.80;;
14994;SDS011;7593;49.006;8.372;2022-09-25T02:07:43;17.02;;;15.35;;
14994;SDS011;7593;49.006;8.372;2022-09-25T02:10:13;17.23;;;15.50;;
14994;SDS011;7593;49.006;8.372;2022-09-25T02:12:44;16.85;;;15.15;;
14994;SDS011;7593;49.006;8.372;2022-09-25T02:15:15;17.58;;;15.73;;
14994;SDS011;7593;49.006;8.372;2022-09-25T02:17:46;16.02;;;14.27;;
14994;SDS011;7593;49.006;8.372;2022-09-25T02:20:35;16.55;;;14.73;;
14994;SDS011;7593;49.006;8.372;2022-09-25T02:23:07;16.08;;;14.30;;
14994;SDS011;7593;49.006;8.372;2022-09-25T02:25:42;16.35;;;14.70;;
14994;SDS011;7593;49.006;8.372;2022-09-25T02:28:12;17.90;;;14.57;;
14994;SDS011;7593;49.006;8.372;2022-09-25T02:30:40;15.68;;;14.07;;
14994;SDS011;7593;49.006;8.372;2022-09-25T02:33:09;15.57;;;13.98;;
14994;SDS011;7593;49.006;8.372;2022-09-25T02:35:35;16.17;;;14.57;;
14994;SDS011;7593;49.006;8.372;2022-09-25T02:38:03;15.15;;;13.57;;
14994;SDS011;7593;49.006;8.372;2022-09-25T02:40:32;16.70;;;14.70;;
14994;SDS011;7593;49.006;8.372;2022-09-25T02:43:09;16.45;;;13.05;;
14994;SDS011;7593;49.006;8.372;2022-09-25T02:45:46;15.38;;;13.80;;
14994;SDS011;7593;49.006;8.372;2022-09-25T02:48:21;15.35;;;13.32;;
14994;SDS011;7593;49.006;8.372;2022-09-25T02:50:55;18.05;;;14.38;;
14994;SDS011;7593;49.006;8.372;2022-09-25T02:53:30;15.00;;;13.38;;
14994;SDS011;7593;49.006;8.372;2022-09-25T02:56:02;14.95;;;13.45;;
14994;SDS011;7593;49.006;8.372;2022-09-25T02:58:34;15.10;;;13.60;;
14994;SDS011;7593;49.006;8.372;2022-09-25T03:01:04;15.65;;;14.00;;
14994;SDS011;7593;49.006;8.372;2022-09-25T03:03:33;17.30;;;13.40;;
14994;SDS011;7593;49.006;8.372;2022-09-25T03:06:03;15.85;;;14.20;;
14994;SDS011;7593;49.006;8.372;2022-09-25T03:08:31;14.93;;;13.40;;
14994;SDS011;7593;49.006;8.372;2022-09-25T03:11:06;18.25;;;14.07;;
14994;SDS011;7593;49.006;8.372;2022-09-25T03:13:34;14.82;;;13.48;;
14994;SDS011;7593;49.006;8.372;2022-09-25T03:16:04;16.55;;;14.93;;
14994;SDS011;7593;49.006;8.372;2022-09-25T03:18:37;16.80;;;15.13;;
14994;SDS011;7593;49.006;8.372;2022-09-25T03:21:04;18.38;;;14.93;;
14994;SDS011;7593;49.006;8.372;2022-09-25T03:23:30;17.20;;;15.43;;
14994;SDS011;7593;49.006;8.372;2022-09-25T03:25:58;18.02;;;15.55;;
14994;SDS011;7593;49.006;8.372;2022-09-25T03:28:28;18.27;;;15.38;;
14994;SDS011;7593;49.006;8.372;2022-09-25T03:30:55;18.38;;;16.38;;
14994;SDS011;7593;49.006;8.372;2022-09-25T03:33:25;18.92;;;16.92;;
14994;SDS011;7593;49.006;8.372;2022-09-25T03:36:00;17.17;;;15.43;;
14994;SDS011;7593;49.006;8.372;2022-09-25T03:38:29;18.73;;;16.73;;
14994;SDS011;7593;49.006;8.372;2022-09-25T03:40:56;19.17;;;17.17;;
14994;SDS011;7593;49.006;8.372;2022-09-25T03:43:22;19.98;;;17.33;;
14994;SDS011;7593;49.006;8.372;2022-09-25T03:45:49;19.92;;;17.83;;
14994;SDS011;7593;49.006;8.372;2022-09-25T03:48:18;19.27;;;17.23;;
14994;SDS011;7593;49.006;8.372;2022-09-25T03:50:47;22.23;;;18.33;;
14994;SDS011;7593;49.006;8.372;2022-09-25T03:53:14;20.70;;;18.55;;
14994;SDS011;7593;49.006;8.372;2022-09-25T03:55:42;20.52;;;18.40;;
14994;SDS011;7593;49.006;8.372;2022-09-25T03:58:10;21.73;;;18.77;;
14994;SDS011;7593;49.006;8.372;2022-09-25T04:00:39;21.58;;;18.75;;
14994;SDS011;7593;49.006;8.372;2022-09-25T04:03:06;20.15;;;17.83;;
14994;SDS011;7593;49.006;8.372;2022-09-25T04:05:33;21.10;;;18.95;;
14994;SDS011;7593;49.006;8.372;2022-09-25T04:08:02;20.55;;;18.38;;
14994;SDS011;7593;49.006;8.372;2022-09-25T04:10:29;20.75;;;18.15;;
14994;SDS011;7593;49.006;8.372;2022-09-25T04:12:55;22.73;;;18.88;;
14994;SDS011;7593;49.006;8.372;2022-09-25T04:15:22;20.27;;;18.15;;
14994;SDS011;7593;49.006;8.372;2022-09-25T04:17:49;23.65;;;19.27;;
14994;SDS011;7593;49.006;8.372;2022-09-25T04:20:17;20.95;;;18.85;;
14994;SDS011;7593;49.006;8.372;2022-09-25T04:22:43;21.38;;;18.08;;
14994;SDS011;7593;49.006;8.372;2022-09-25T04:25:11;20.13;;;18.10;;
14994;SDS011;7593;49.006;8.372;2022-09-25T04:27:38;20.70;;;18.60;;
14994;SDS011;7593;49.006;8.372;2022-09-25T04:30:05;20.73;;;18.52;;
14994;SDS011;7593;49.006;8.372;2022-09-25T04:32:34;21.95;;;19.65;;
14994;SDS011;7593;49.006;8.372;2022-09-25T04:35:19;21.52;;;19.33;;
14994;SDS011;7593;49.006;8.372;2022-09-25T04:37:46;20.80;;;18.60;;
14994;SDS011;7593;49.006;8.372;2022-09-25T04:40:14;20.48;;;18.42;;
14994;SDS011;7593;49.006;8.372;2022-09-25T04:42:41;21.83;;;18.73;;
14994;SDS011;7593;49.006;8.372;2022-09-25T04:45:08;20.77;;;18.65;;
14994;SDS011;7593;49.006;8.372;2022-09-25T04:47:35;21.05;;;18.95;;
14994;SDS011;7593;49.006;8.372;2022-09-25T04:50:02;21.35;;;18.90;;
14994;SDS011;7593;49.006;8.372;2022-09-25T04:52:29;23.17;;;19.08;;
14994;SDS011;7593;49.006;8.372;2022-09-25T04:54:56;19.92;;;17.88;;
14994;SDS011;7593;49.006;8.372;2022-09-25T04:57:25;21.15;;;19.00;;
14994;SDS011;7593;49.006;8.372;2022-09-25T04:59:52;21.42;;;18.35;;
14994;SDS011;7593;49.006;8.372;2022-09-25T05:02:18;19.70;;;17.35;;
14994;SDS011;7593;49.006;8.372;2022-09-25T05:04:45;19.90;;;17.95;;
14994;SDS011;7593;49.006;8.372;2022-09-25T05:07:12;18.90;;;17.10;;
14994;SDS011;7593;49.006;8.372;2022-09-25T05:09:38;19.23;;;17.23;;
14994;SDS011;7593;49.006;8.372;2022-09-25T05:12:05;18.88;;;16.98;;
14994;SDS011;7593;49.006;8.372;2022-09-25T05:14:34;18.90;;;16.90;;
14994;SDS011;7593;49.006;8.372;2022-09-25T05:17:00;17.88;;;16.15;;
14994;SDS011;7593;49.006;8.372;2022-09-25T05:19:27;19.20;;;17.20;;
14994;SDS011;7593;49.006;8.372;2022-09-25T05:21:55;20.52;;;17.58;;
14994;SDS011;7593;49.006;8.372;2022-09-25T05:24:21;18.30;;;16.40;;
14994;SDS011;7593;49.006;8.372;2022-09-25T05:26:48;18.42;;;16.60;;
14994;SDS011;7593;49.006;8.372;2022-09-25T05:29:15;17.98;;;16.02;;
14994;SDS011;7593;49.006;8.372;2022-09-25T05:31:43;18.73;;;16.92;;
14994;SDS011;7593;49.006;8.372;2022-09-25T05:34:13;20.02;;;17.25;;
14994;SDS011;7593;49.006;8.372;2022-09-25T05:36:40;22.27;;;20.10;;
14994;SDS011;7593;49.006;8.372;2022-09-25T05:39:07;30.20;;;27.10;;
14994;SDS011;7593;49.006;8.372;2022-09-25T05:41:34;20.98;;;17.40;;
14994;SDS011;7593;49.006;8.372;2022-09-25T05:44:01;18.98;;;16.92;;
14994;SDS011;7593;49.006;8.372;2022-09-25T05:46:30;18.95;;;17.05;;
14994;SDS011;7593;49.006;8.372;2022-09-25T05:48:59;35.55;;;32.50;;
14994;SDS011;7593;49.006;8.372;2022-09-25T05:51:26;20.17;;;18.02;;
14994;SDS011;7593;49.006;8.372;2022-09-25T05:53:53;28.30;;;25.50;;
14994;SDS011;7593;49.006;8.372;2022-09-25T05:56:20;17.00;;;15.30;;
14994;SDS011;7593;49.006;8.372;2022-09-25T05:58:49;18.77;;;16.17;;
14994;SDS011;7593;49.006;8.372;2022-09-25T06:01:17;16.52;;;14.73;;
14994;SDS011;7593;49.006;8.372;2022-09-25T06:03:44;16.10;;;14.40;;
14994;SDS011;7593;49.006;8.372;2022-09-25T06:06:12;16.45;;;14.27;;
14994;SDS011;7593;49.006;8.372;2022-09-25T06:08:39;16.10;;;14.40;;
14994;SDS011;7593;49.006;8.372;2022-09-25T06:11:05;14.98;;;13.48;;
14994;SDS011;7593;49.006;8.372;2022-09-25T06:13:35;16.17;;;14.40;;
14994;SDS011;7593;49.006;8.372;2022-09-25T06:16:02;14.27;;;12.88;;
14994;SDS011;7593;49.006;8.372;2022-09-25T06:18:30;17.17;;;14.10;;
14994;SDS011;7593;49.006;8.372;2022-09-25T06:20:58;13.90;;;12.60;;
14994;SDS011;7593;49.006;8.372;2022-09-25T06:23:28;15.65;;;14.02;;
14994;SDS011;7593;49.006;8.372;2022-09-25T06:25:58;12.80;;;11.50;;
14994;SDS011;7593;49.006;8.372;2022-09-25T06:28:26;13.63;;;12.15;;
14994;SDS011;7593;49.006;8.372;2022-09-25T06:30:53;12.20;;;11.10;;
14994;SDS011;7593;49.006;8.372;2022-09-25T06:33:20;12.05;;;10.85;;
14994;SDS011;7593;49.006;8.372;2022-09-25T06:35:47;11.23;;;10.15;;
14994;SDS011;7593;49.006;8.372;2022-09-25T06:38:14;11.77;;;10.60;;
14994;SDS011;7593;49.006;8.372;2022-09-25T06:40:43;13.73;;;11.05;;
14994;SDS011;7593;49.006;8.372;2022-09-25T06:43:11;13.07;;;11.75;;
14994;SDS011;7593;49.006;8.372;2022-09-25T06:45:39;12.77;;;11.52;;
14994;SDS011;7593;49.006;8.372;2022-09-25T06:48:07;12.15;;;11.05;;
14994;SDS011;7593;49.006;8.372;2022-09-25T06:50:36;13.30;;;12.00;;
14994;SDS011;7593;49.006;8.372;2022-09-25T06:53:05;11.60;;;10.43;;
14994;SDS011;7593;49.006;8.372;2022-09-25T06:55:33;12.02;;;10.82;;
14994;SDS011;7593;49.006;8.372;2022-09-25T06:58:01;12.18;;;10.90;;
14994;SDS011;7593;49.006;8.372;2022-09-25T07:00:28;12.55;;;11.25;;
14994;SDS011;7593;49.006;8.372;2022-09-25T07:02:56;12.90;;;11.50;;
14994;SDS011;7593;49.006;8.372;2022-09-25T07:05:40;11.50;;;10.35;;
14994;SDS011;7593;49.006;8.372;2022-09-25T07:08:08;12.10;;;10.98;;
14994;SDS011;7593;49.006;8.372;2022-09-25T07:10:37;14.15;;;11.35;;
14994;SDS011;7593;49.006;8.372;2022-09-25T07:13:05;13.20;;;11.80;;
14994;SDS011;7593;49.006;8.372;2022-09-25T07:15:31;12.48;;;11.27;;
14994;SDS011;7593;49.006;8.372;2022-09-25T07:17:58;12.07;;;10.88;;
14994;SDS011;7593;49.006;8.372;2022-09-25T07:20:25;12.15;;;11.05;;
14994;SDS011;7593;49.006;8.372;2022-09-25T07:22:57;14.70;;;10.88;;
14994;SDS011;7593;49.006;8.372;2022-09-25T07:25:24;11.77;;;10.57;;
14994;SDS011;7593;49.006;8.372;2022-09-25T07:27:51;12.05;;;10.75;;
14994;SDS011;7593;49.006;8.372;2022-09-25T07:30:19;12.35;;;11.15;;
14994;SDS011;7593;49.006;8.372;2022-09-25T07:32:46;13.30;;;11.80;;
14994;SDS011;7593;49.006;8.372;2022-09-25T07:35:13;12.35;;;11.05;;
14994;SDS011;7593;49.006;8.372;2022-09-25T07:37:40;12.85;;;11.52;;
14994;SDS011;7593;49.006;8.372;2022-09-25T07:40:07;12.25;;;10.93;;
14994;SDS011;7593;49.006;8.372;2022-09-25T07:42:38;12.85;;;11.65;;
14994;SDS011;7593;49.006;8.372;2022-09-25T07:45:05;11.77;;;10.68;;
14994;SDS011;7593;49.006;8.372;2022-09-25T07:47:34;12.13;;;10.80;;
14994;SDS011;7593;49.006;8.372;2022-09-25T07:50:01;12.68;;;11.30;;
14994;SDS011;7593;49.006;8.372;2022-09-25T07:52:27;10.98;;;9.85;;
14994;SDS011;7593;49.006;8.372;2022-09-25T07:54:54;10.40;;;9.50;;
14994;SDS011;7593;49.006;8.372;2022-09-25T07:57:22;11.45;;;10.27;;
14994;SDS011;7593;49.006;8.372;2022-09-25T07:59:49;11.13;;;9.93;;
14994;SDS011;7593;49.006;8.372;2022-09-25T08:02:16;11.43;;;9.82;;
14994;SDS011;7593;49.006;8.372;2022-09-25T08:04:44;10.98;;;9.88;;
14994;SDS011;7593;49.006;8.372;2022-09-25T08:07:11;12.70;;;10.48;;
14994;SDS011;7593;49.006;8.372;2022-09-25T08:09:38;11.30;;;10.20;;
14994;SDS011;7593;49.006;8.372;2022-09-25T08:12:05;11.90;;;10.52;;
14994;SDS011;7593;49.006;8.372;2022-09-25T08:14:35;14.15;;;12.65;;
14994;SDS011;7593;49.006;8.372;2022-09-25T08:17:01;13.38;;;12.07;;
14994;SDS011;7593;49.006;8.372;2022-09-25T08:19:28;12.75;;;11.55;;
14994;SDS011;7593;49.006;8.372;2022-09-25T08:21:57;12.27;;;11.07;;
14994;SDS011;7593;49.006;8.372;2022-09-25T08:24:24;12.50;;;11.20;;
14994;SDS011;7593;49.006;8.372;2022-09-25T08:26:51;12.30;;;11.10;;
14994;SDS011;7593;49.006;8.372;2022-09-25T08:29:18;12.95;;;11.65;;
14994;SDS011;7593;49.006;8.372;2022-09-25T08:31:44;13.80;;;12.38;;
14994;SDS011;7593;49.006;8.372;2022-09-25T08:34:11;15.70;;;11.45;;
14994;SDS011;7593;49.006;8.372;2022-09-25T08:36:40;12.88;;;11.55;;
14994;SDS011;7593;49.006;8.372;2022-09-25T08:39:08;14.10;;;12.73;;
14994;SDS011;7593;49.006;8.372;2022-09-25T08:41:39;15.38;;;13.10;;
14994;SDS011;7593;49.006;8.372;2022-09-25T08:44:15;13.90;;;12.48;;
14994;SDS011;7593;49.006;8.372;2022-09-25T08:46:49;14.93;;;12.80;;
14994;SDS011;7593;49.006;8.372;2022-09-25T08:49:37;12.65;;;11.32;;
14994;SDS011;7593;49.006;8.372;2022-09-25T08:52:07;15.05;;;11.57;;
14994;SDS011;7593;49.006;8.372;2022-09-25T08:54:41;14.25;;;12.85;;
14994;SDS011;7593;49.006;8.372;2022-09-25T08:57:11;14.18;;;12.77;;
14994;SDS011;7593;49.006;8.372;2022-09-25T08:59:42;18.13;;;16.10;;
14994;SDS011;7593;49.006;8.372;2022-09-25T09:02:12;17.45;;;15.15;;
14994;SDS011;7593;49.006;8.372;2022-09-25T09:04:42;13.55;;;12.15;;
14994;SDS011;7593;49.006;8.372;2022-09-25T09:07:13;12.88;;;11.50;;
14994;SDS011;7593;49.006;8.372;2022-09-25T09:09:48;12.85;;;11.55;;
14994;SDS011;7593;49.006;8.372;2022-09-25T09:12:21;10.93;;;9.93;;
14994;SDS011;7593;49.006;8.372;2022-09-25T09:14:54;12.70;;;11.40;;
14994;SDS011;7593;49.006;8.372;2022-09-25T09:17:32;11.15;;;10.07;;
14994;SDS011;7593;49.006;8.372;2022-09-25T09:20:10;11.65;;;10.65;;
14994;SDS011;7593;49.006;8.372;2022-09-25T09:22:40;12.35;;;11.13;;
14994;SDS011;7593;49.006;8.372;2022-09-25T09:25:17;12.20;;;10.93;;
14994;SDS011;7593;49.006;8.372;2022-09-25T09:27:55;11.88;;;10.65;;
14994;SDS011;7593;49.006;8.372;2022-09-25T09:30:33;11.88;;;10.57;;
14994;SDS011;7593;49.006;8.372;2022-09-25T09:33:10;11.48;;;10.38;;
14994;SDS011;7593;49.006;8.372;2022-09-25T09:35:52;10.10;;;8.98;;
14994;SDS011;7593;49.006;8.372;2022-09-25T09:38:31;10.65;;;9.63;;
14994;SDS011;7593;49.006;8.372;2022-09-25T09:41:12;10.48;;;9.48;;
14994;SDS011;7593;49.006;8.372;2022-09-25T09:44:01;11.45;;;10.35;;
14994;SDS011;7593;49.006;8.372;2022-09-25T09:46:42;10.93;;;9.25;;
14994;SDS011;7593;49.006;8.372;2022-09-25T09:49:16;11.85;;;9.85;;
14994;SDS011;7593;49.006;8.372;2022-09-25T09:51:47;10.48;;;9.25;;
14994;SDS011;7593;49.006;8.372;2022-09-25T09:54:18;10.00;;;9.00;;
14994;SDS011;7593;49.006;8.372;2022-09-25T09:56:53;10.95;;;9.85;;
14994;SDS011;7593;49.006;8.372;2022-09-25T09:59:26;12.13;;;10.60;;
14994;SDS011;7593;49.006;8.372;2022-09-25T10:02:00;14.05;;;9.90;;
14994;SDS011;7593;49.006;8.372;2022-09-25T10:04:32;14.20;;;11.73;;
14994;SDS011;7593;49.006;8.372;2022-09-25T10:07:03;9.23;;;8.35;;
14994;SDS011;7593;49.006;8.372;2022-09-25T10:09:34;9.65;;;8.68;;
14994;SDS011;7593;49.006;8.372;2022-09-25T10:12:04;11.52;;;9.82;;
14994;SDS011;7593;49.006;8.372;2022-09-25T10:14:35;7.95;;;7.15;;
14994;SDS011;7593;49.006;8.372;2022-09-25T10:17:06;8.55;;;7.75;;
14994;SDS011;7593;49.006;8.372;2022-09-25T10:19:38;9.27;;;8.30;;
14994;SDS011;7593;49.006;8.372;2022-09-25T10:22:13;9.63;;;8.63;;
14994;SDS011;7593;49.006;8.372;2022-09-25T10:24:46;9.98;;;8.98;;
14994;SDS011;7593;49.006;8.372;2022-09-25T10:27:20;8.45;;;7.47;;
14994;SDS011;7593;49.006;8.372;2022-09-25T10:30:01;7.65;;;6.90;;
14994;SDS011;7593;49.006;8.372;2022-09-25T10:32:40;7.85;;;7.15;;
14994;SDS011;7593;49.006;8.372;2022-09-25T10:35:12;8.65;;;7.45;;
14994;SDS011;7593;49.006;8.372;2022-09-25T10:37:41;7.97;;;7.13;;
14994;SDS011;7593;49.006;8.372;2022-09-25T10:40:20;8.40;;;7.60;;
14994;SDS011;7593;49.006;8.372;2022-09-25T10:43:02;9.95;;;8.80;;
14994;SDS011;7593;49.006;8.372;2022-09-25T10:45:41;11.70;;;10.48;;
14994;SDS011;7593;49.006;8.372;2022-09-25T10:48:21;11.68;;;9.85;;
14994;SDS011;7593;49.006;8.372;2022-09-25T10:51:09;10.30;;;9.30;;
14994;SDS011;7593;49.006;8.372;2022-09-25T10:53:41;7.40;;;6.70;;
14994;SDS011;7593;49.006;8.372;2022-09-25T10:56:10;10.93;;;9.23;;
14994;SDS011;7593;49.006;8.372;2022-09-25T10:58:41;11.35;;;10.13;;
14994;SDS011;7593;49.006;8.372;2022-09-25T11:01:11;9.30;;;8.40;;
14994;SDS011;7593;49.006;8.372;2022-09-25T11:03:43;9.30;;;8.40;;
14994;SDS011;7593;49.006;8.372;2022-09-25T11:06:17;9.60;;;8.23;;
14994;SDS011;7593;49.006;8.372;2022-09-25T11:08:49;9.52;;;8.48;;
14994;SDS011;7593;49.006;8.372;2022-09-25T11:11:24;8.32;;;7.45;;
14994;SDS011;7593;49.006;8.372;2022-09-25T11:13:54;9.40;;;8.50;;
14994;SDS011;7593;49.006;8.372;2022-09-25T11:19:09;6.95;;;6.25;;
14994;SDS011;7593;49.006;8.372;2022-09-25T11:21:39;6.40;;;5.70;;
14994;SDS011;7593;49.006;8.372;2022-09-25T11:24:12;6.15;;;5.55;;
14994;SDS011;7593;49.006;8.372;2022-09-25T11:26:44;5.05;;;4.65;;
14994;SDS011;7593;49.006;8.372;2022-09-25T11:29:19;6.13;;;4.70;;
14994;SDS011;7593;49.006;8.372;2022-09-25T11:31:50;5.78;;;4.43;;
14994;SDS011;7593;49.006;8.372;2022-09-25T11:34:24;5.47;;;4.93;;
14994;SDS011;7593;49.006;8.372;2022-09-25T11:37:00;5.13;;;4.65;;
14994;SDS011;7593;49.006;8.372;2022-09-25T11:39:34;4.90;;;4.50;;
14994;SDS011;7593;49.006;8.372;2022-09-25T11:42:26;5.18;;;4.75;;
14994;SDS011;7593;49.006;8.372;2022-09-25T11:44:58;6.88;;;5.75;;
14994;SDS011;7593;49.006;8.372;2022-09-25T11:47:35;5.20;;;4.70;;
14994;SDS011;7593;49.006;8.372;2022-09-25T11:50:09;4.70;;;4.30;;
14994;SDS011;7593;49.006;8.372;2022-09-25T11:52:41;4.55;;;4.15;;
14994;SDS011;7593;49.006;8.372;2022-09-25T11:58:09;5.10;;;4.70;;
14994;SDS011;7593;49.006;8.372;2022-09-25T12:00:47;5.47;;;4.97;;
14994;SDS011;7593;49.006;8.372;2022-09-25T12:03:27;4.85;;;4.45;;
14994;SDS011;7593;49.006;8.372;2022-09-25T12:06:09;5.25;;;4.78;;
14994;SDS011;7593;49.006;8.372;2022-09-25T12:08:59;5.35;;;4.95;;
14994;SDS011;7593;49.006;8.372;2022-09-25T12:11:34;5.55;;;5.07;;
14994;SDS011;7593;49.006;8.372;2022-09-25T12:14:13;5.55;;;5.13;;
14994;SDS011;7593;49.006;8.372;2022-09-25T12:16:47;4.40;;;4.10;;
14994;SDS011;7593;49.006;8.372;2022-09-25T12:19:25;4.70;;;4.22;;
14994;SDS011;7593;49.006;8.372;2022-09-25T12:22:02;3.75;;;3.45;;
14994;SDS011;7593;49.006;8.372;2022-09-25T12:24:37;3.63;;;3.33;;
14994;SDS011;7593;49.006;8.372;2022-09-25T12:27:15;4.85;;;4.07;;
14994;SDS011;7593;49.006;8.372;2022-09-25T12:30:00;5.07;;;4.68;;
14994;SDS011;7593;49.006;8.372;2022-09-25T12:32:36;3.97;;;3.55;;
14994;SDS011;7593;49.006;8.372;2022-09-25T12:35:19;4.43;;;4.03;;
14994;SDS011;7593;49.006;8.372;2022-09-25T12:37:55;4.35;;;3.95;;
14994;SDS011;7593;49.006;8.372;2022-09-25T12:40:29;5.63;;;4.30;;
14994;SDS011;7593;49.006;8.372;2022-09-25T12:42:59;5.30;;;4.80;;
14994;SDS011;7593;49.006;8.372;2022-09-25T12:45:30;4.72;;;4.30;;
14994;SDS011;7593;49.006;8.372;2022-09-25T12:48:06;4.93;;;4.45;;
14994;SDS011;7593;49.006;8.372;2022-09-25T12:50:38;5.20;;;4.80;;
14994;SDS011;7593;49.006;8.372;2022-09-25T12:53:24;5.45;;;5.00;;
14994;SDS011;7593;49.006;8.372;2022-09-25T12:55:57;4.97;;;4.40;;
14994;SDS011;7593;49.006;8.372;2022-09-25T12:58:34;4.50;;;4.10;;
14994;SDS011;7593;49.006;8.372;2022-09-25T13:01:09;4.53;;;4.10;;
14994;SDS011;7593;49.006;8.372;2022-09-25T13:03:47;4.68;;;4.20;;
14994;SDS011;7593;49.006;8.372;2022-09-25T13:06:24;4.50;;;4.10;;
14994;SDS011;7593;49.006;8.372;2022-09-25T13:09:01;5.10;;;4.60;;
14994;SDS011;7593;49.006;8.372;2022-09-25T13:11:34;4.85;;;4.45;;
14994;SDS011;7593;49.006;8.372;2022-09-25T13:14:15;5.47;;;4.47;;
14994;SDS011;7593;49.006;8.372;2022-09-25T13:16:47;3.85;;;3.03;;
14994;SDS011;7593;49.006;8.372;2022-09-25T13:19:23;3.40;;;3.10;;
14994;SDS011;7593;49.006;8.372;2022-09-25T13:21:57;4.35;;;3.47;;
14994;SDS011;7593;49.006;8.372;2022-09-25T13:24:25;3.85;;;3.20;;
14994;SDS011;7593;49.006;8.372;2022-09-25T13:26:53;3.60;;;3.30;;
14994;SDS011;7593;49.006;8.372;2022-09-25T13:29:22;4.63;;;4.00;;
14994;SDS011;7593;49.006;8.372;2022-09-25T13:31:52;4.88;;;3.70;;
14994;SDS011;7593;49.006;8.372;2022-09-25T13:34:29;4.00;;;3.70;;
14994;SDS011;7593;49.006;8.372;2022-09-25T13:37:02;4.65;;;4.13;;
14994;SDS011;7593;49.006;8.372;2022-09-25T13:39:32;3.67;;;3.38;;
14994;SDS011;7593;49.006;8.372;2022-09-25T13:42:23;3.30;;;3.00;;
14994;SDS011;7593;49.006;8.372;2022-09-25T13:44:57;3.30;;;3.00;;
14994;SDS011;7593;49.006;8.372;2022-09-25T13:50:32;3.83;;;3.42;;
14994;SDS011;7593;49.006;8.372;2022-09-25T13:53:01;3.65;;;3.03;;
14994;SDS011;7593;49.006;8.372;2022-09-25T13:58:57;3.22;;;2.92;;
14994;SDS011;7593;49.006;8.372;2022-09-25T14:01:32;3.17;;;2.88;;
14994;SDS011;7593;49.006;8.372;2022-09-25T14:04:06;2.65;;;2.40;;
14994;SDS011;7593;49.006;8.372;2022-09-25T14:06:36;2.60;;;2.40;;
14994;SDS011;7593;49.006;8.372;2022-09-25T14:09:06;2.90;;;2.60;;
14994;SDS011;7593;49.006;8.372;2022-09-25T14:11:35;3.03;;;2.47;;
14994;SDS011;7593;49.006;8.372;2022-09-25T14:14:04;3.47;;;2.80;;
14994;SDS011;7593;49.006;8.372;2022-09-25T14:16:35;3.08;;;2.78;;
14994;SDS011;7593;49.006;8.372;2022-09-25T14:19:07;2.92;;;2.67;;
14994;SDS011;7593;49.006;8.372;2022-09-25T14:21:43;3.00;;;2.70;;
14994;SDS011;7593;49.006;8.372;2022-09-25T14:24:16;2.70;;;2.50;;
14994;SDS011;7593;49.006;8.372;2022-09-25T14:26:46;2.30;;;2.10;;
14994;SDS011;7593;49.006;8.372;2022-09-25T14:29:15;2.67;;;2.10;;
14994;SDS011;7593;49.006;8.372;2022-09-25T14:31:46;2.38;;;2.17;;
14994;SDS011;7593;49.006;8.372;2022-09-25T14:34:30;2.33;;;2.10;;
14994;SDS011;7593;49.006;8.372;2022-09-25T14:37:14;2.72;;;2.50;;
14994;SDS011;7593;49.006;8.372;2022-09-25T14:39:53;2.35;;;2.15;;
14994;SDS011;7593;49.006;8.372;2022-09-25T14:42:41;1.95;;;1.85;;
14994;SDS011;7593;49.006;8.372;2022-09-25T14:45:31;2.92;;;2.10;;
14994;SDS011;7593;49.006;8.372;2022-09-25T14:48:13;2.28;;;2.00;;
14994;SDS011;7593;49.006;8.372;2022-09-25T14:50:44;2.00;;;1.80;;
14994;SDS011;7593;49.006;8.372;2022-09-25T14:53:16;2.28;;;2.00;;
14994;SDS011;7593;49.006;8.372;2022-09-25T14:55:48;2.67;;;1.90;;
14994;SDS011;7593;49.006;8.372;2022-09-25T14:58:17;2.22;;;2.03;;
14994;SDS011;7593;49.006;8.372;2022-09-25T15:00:47;2.50;;;2.20;;
14994;SDS011;7593;49.006;8.372;2022-09-25T15:03:18;2.30;;;2.10;;
14994;SDS011;7593;49.006;8.372;2022-09-25T15:05:49;2.80;;;2.45;;
14994;SDS011;7593;49.006;8.372;2022-09-25T15:08:21;3.30;;;3.00;;
14994;SDS011;7593;49.006;8.372;2022-09-25T15:10:59;3.03;;;2.70;;
14994;SDS011;7593;49.006;8.372;2022-09-25T15:13:27;3.60;;;3.30;;
14994;SDS011;7593;49.006;8.372;2022-09-25T15:15:57;5.47;;;3.75;;
14994;SDS011;7593;49.006;8.372;2022-09-25T15:18:52;4.78;;;4.07;;
14994;SDS011;7593;49.006;8.372;2022-09-25T15:21:23;5.20;;;4.80;;